sensor_id;sensor_type;location;lat;lon;timestamp;pressure;altitude;pressure_sealevel;temperature;humidity
69667;BME280;66534;52.370;4.832;2023-02-04T00:00:18;103320.31;;;7.56;100.00
69667;BME280;66534;52.370;4.832;2023-02-04T00:00:51;103316.84;;;7.53;100.00
69667;BME280;66534;52.370;4.832;2023-02-04T00:01:22;103327.34;;;7.63;100.00
69667;BME280;66534;52.370;4.832;2023-02-04T00:01:53;103327.38;;;7.66;100.00
69667;BME280;66534;52.370;4.832;2023-02-04T00:02:23;103320.31;;;7.56;100.00
69667;BME280;66534;52.370;4.832;2023-02-04T00:02:54;103322.97;;;7.58;100.00
69667;BME280;66534;52.370;4.832;2023-02-04T00:03:24;103323.75;;;7.51;100.00
69667;BME280;66534;52.370;4.832;2023-02-04T00:03:55;103321.13;;;7.46;100.00
69667;BME280;66534;52.370;4.832;2023-02-04T00:04:25;103316.72;;;7.43;100.00
69667;BME280;66534;52.370;4.832;2023-02-04T00:04:55;103321.91;;;7.39;100.00
69667;BME280;66534;52.370;4.832;2023-02-04T00:05:26;103324.63;;;7.51;100.00
69667;BME280;66534;52.370;4.832;2023-02-04T00:05:56;103324.72;;;7.62;100.00
69667;BME280;66534;52.370;4.832;2023-02-04T00:06:26;103323.84;;;7.57;100.00
69667;BME280;66534;52.370;4.832;2023-02-04T00:06:57;103319.44;;;7.53;100.00
69667;BME280;66534;52.370;4.832;2023-02-04T00:07:27;103312.44;;;7.48;100.00
69667;BME280;66534;52.370;4.832;2023-02-04T00:07:58;103319.31;;;7.39;100.00
69667;BME280;66534;52.370;4.832;2023-02-04T00:08:28;103308.78;;;7.30;100.00
69667;BME280;66534;52.370;4.832;2023-02-04T00:08:59;103314.84;;;7.27;100.00
69667;BME280;66534;52.370;4.832;2023-02-04T00:09:29;103312.22;;;7.27;100.00
69667;BME280;66534;52.370;4.832;2023-02-04T00:10:00;103309.66;;;7.30;100.00
69667;BME280;66534;52.370;4.832;2023-02-04T00:10:31;103307.13;;;7.38;100.00
69667;BME280;66534;52.370;4.832;2023-02-04T00:11:02;103313.19;;;7.35;100.00
69667;BME280;66534;52.370;4.832;2023-02-04T00:11:33;103308.75;;;7.23;100.00
69667;BME280;66534;52.370;4.832;2023-02-04T00:12:04;103309.59;;;7.21;100.00
69667;BME280;66534;52.370;4.832;2023-02-04T00:12:34;103306.94;;;7.18;100.00
69667;BME280;66534;52.370;4.832;2023-02-04T00:13:05;103310.41;;;7.18;100.00
69667;BME280;66534;52.370;4.832;2023-02-04T00:13:35;103306.03;;;7.14;100.00
69667;BME280;66534;52.370;4.832;2023-02-04T00:14:06;103306.88;;;7.10;100.00
69667;BME280;66534;52.370;4.832;2023-02-04T00:14:36;103313.03;;;7.18;100.00
69667;BME280;66534;52.370;4.832;2023-02-04T00:15:07;103312.19;;;7.19;100.00
69667;BME280;66534;52.370;4.832;2023-02-04T00:15:37;103306.88;;;7.10;100.00
69667;BME280;66534;52.370;4.832;2023-02-04T00:16:08;103312.94;;;7.08;100.00
69667;BME280;66534;52.370;4.832;2023-02-04T00:16:38;103306.88;;;7.10;100.00
69667;BME280;66534;52.370;4.832;2023-02-04T00:17:08;103311.25;;;7.14;100.00
69667;BME280;66534;52.370;4.832;2023-02-04T00:17:40;103310.38;;;7.12;100.00
69667;BME280;66534;52.370;4.832;2023-02-04T00:18:11;103309.44;;;7.06;100.00
69667;BME280;66534;52.370;4.832;2023-02-04T00:18:41;103317.25;;;7.06;100.00
69667;BME280;66534;52.370;4.832;2023-02-04T00:19:11;103319.84;;;7.01;100.00
69667;BME280;66534;52.370;4.832;2023-02-04T00:19:42;103319.78;;;6.98;100.00
69667;BME280;66534;52.370;4.832;2023-02-04T00:20:12;103317.19;;;6.98;100.00
69667;BME280;66534;52.370;4.832;2023-02-04T00:20:42;103319.84;;;7.01;100.00
69667;BME280;66534;52.370;4.832;2023-02-04T00:21:13;103307.66;;;7.00;100.00
69667;BME280;66534;52.370;4.832;2023-02-04T00:21:43;103315.56;;;7.09;100.00
69667;BME280;66534;52.370;4.832;2023-02-04T00:22:14;103323.34;;;7.05;100.00
69667;BME280;66534;52.370;4.832;2023-02-04T00:22:44;103329.34;;;6.97;100.00
69667;BME280;66534;52.370;4.832;2023-02-04T00:23:15;103326.69;;;6.93;100.00
69667;BME280;66534;52.370;4.832;2023-02-04T00:23:45;103324.91;;;6.89;100.00
69667;BME280;66534;52.370;4.832;2023-02-04T00:24:15;103329.41;;;6.99;100.00
69667;BME280;66534;52.370;4.832;2023-02-04T00:24:46;103331.22;;;7.09;100.00
69667;BME280;66534;52.370;4.832;2023-02-04T00:25:18;103329.47;;;7.07;100.00
69667;BME280;66534;52.370;4.832;2023-02-04T00:25:49;103332.09;;;7.08;100.00
69667;BME280;66534;52.370;4.832;2023-02-04T00:26:20;103333.00;;;7.13;100.00
69667;BME280;66534;52.370;4.832;2023-02-04T00:26:50;103329.63;;;7.25;100.00
69667;BME280;66534;52.370;4.832;2023-02-04T00:27:20;103335.56;;;7.09;100.00
69667;BME280;66534;52.370;4.832;2023-02-04T00:27:51;103332.00;;;6.99;100.00
69667;BME280;66534;52.370;4.832;2023-02-04T00:28:21;103332.97;;;7.07;100.00
69667;BME280;66534;52.370;4.832;2023-02-04T00:28:51;103332.06;;;7.05;100.00
69667;BME280;66534;52.370;4.832;2023-02-04T00:29:22;103334.69;;;7.08;100.00
69667;BME280;66534;52.370;4.832;2023-02-04T00:29:52;103324.31;;;7.14;100.00
69667;BME280;66534;52.370;4.832;2023-02-04T00:30:23;103334.03;;;7.31;100.00
69667;BME280;66534;52.370;4.832;2023-02-04T00:30:53;103331.41;;;7.31;100.00
69667;BME280;66534;52.370;4.832;2023-02-04T00:31:24;103335.78;;;7.29;100.00
69667;BME280;66534;52.370;4.832;2023-02-04T00:31:54;103332.34;;;7.36;100.00
69667;BME280;66534;52.370;4.832;2023-02-04T00:32:25;103331.50;;;7.37;100.00
69667;BME280;66534;52.370;4.832;2023-02-04T00:32:55;103334.06;;;7.34;100.00
69667;BME280;66534;52.370;4.832;2023-02-04T00:33:25;103331.31;;;7.17;100.00
69667;BME280;66534;52.370;4.832;2023-02-04T00:33:56;103329.47;;;7.08;100.00
69667;BME280;66534;52.370;4.832;2023-02-04T00:34:26;103338.06;;;6.98;100.00
69667;BME280;66534;52.370;4.832;2023-02-04T00:34:57;103338.09;;;6.99;100.00
69667;BME280;66534;52.370;4.832;2023-02-04T00:35:27;103341.69;;;7.12;100.00
69667;BME280;66534;52.370;4.832;2023-02-04T00:35:58;103338.31;;;7.21;100.00
69667;BME280;66534;52.370;4.832;2023-02-04T00:36:28;103333.13;;;7.24;100.00
69667;BME280;66534;52.370;4.832;2023-02-04T00:36:59;103336.69;;;7.34;100.00
69667;BME280;66534;52.370;4.832;2023-02-04T00:37:30;103342.69;;;7.25;100.00
69667;BME280;66534;52.370;4.832;2023-02-04T00:38:02;103340.19;;;7.39;100.00
69667;BME280;66534;52.370;4.832;2023-02-04T00:38:33;103340.94;;;7.26;100.00
69667;BME280;66534;52.370;4.832;2023-02-04T00:39:03;103342.72;;;7.30;100.00
69667;BME280;66534;52.370;4.832;2023-02-04T00:39:33;103335.78;;;7.29;100.00
69667;BME280;66534;52.370;4.832;2023-02-04T00:40:05;103340.13;;;7.28;100.00
69667;BME280;66534;52.370;4.832;2023-02-04T00:40:36;103331.31;;;7.17;100.00
69667;BME280;66534;52.370;4.832;2023-02-04T00:41:07;103344.22;;;7.05;100.00
69667;BME280;66534;52.370;4.832;2023-02-04T00:41:37;103339.84;;;6.99;100.00
69667;BME280;66534;52.370;4.832;2023-02-04T00:42:08;103345.16;;;7.10;100.00
69667;BME280;66534;52.370;4.832;2023-02-04T00:42:38;103337.34;;;7.14;100.00
69667;BME280;66534;52.370;4.832;2023-02-04T00:43:09;103345.09;;;7.04;100.00
69667;BME280;66534;52.370;4.832;2023-02-04T00:43:39;103339.84;;;7.01;100.00
69667;BME280;66534;52.370;4.832;2023-02-04T00:44:10;103346.88;;;7.09;100.00
69667;BME280;66534;52.370;4.832;2023-02-04T00:44:40;103347.78;;;7.13;100.00
69667;BME280;66534;52.370;4.832;2023-02-04T00:45:10;103345.22;;;7.19;100.00
69667;BME280;66534;52.370;4.832;2023-02-04T00:45:42;103342.56;;;7.14;100.00
69667;BME280;66534;52.370;4.832;2023-02-04T00:46:12;103348.63;;;7.09;100.00
69667;BME280;66534;52.370;4.832;2023-02-04T00:46:42;103352.06;;;7.06;100.00
69667;BME280;66534;52.370;4.832;2023-02-04T00:47:13;103353.88;;;7.12;100.00
69667;BME280;66534;52.370;4.832;2023-02-04T00:47:43;103347.78;;;7.11;100.00
69667;BME280;66534;52.370;4.832;2023-02-04T00:48:14;103346.06;;;7.12;100.00
69667;BME280;66534;52.370;4.832;2023-02-04T00:48:44;103350.56;;;7.31;100.00
69667;BME280;66534;52.370;4.832;2023-02-04T00:49:15;103349.81;;;7.43;100.00
69667;BME280;66534;52.370;4.832;2023-02-04T00:49:45;103348.09;;;7.48;100.00
69667;BME280;66534;52.370;4.832;2023-02-04T00:50:16;103349.72;;;7.32;100.00
69667;BME280;66534;52.370;4.832;2023-02-04T00:50:47;103351.47;;;7.35;100.00
69667;BME280;66534;52.370;4.832;2023-02-04T00:51:17;103351.41;;;7.26;100.00
69667;BME280;66534;52.370;4.832;2023-02-04T00:51:47;103352.97;;;7.08;100.00
69667;BME280;66534;52.370;4.832;2023-02-04T00:52:18;103352.88;;;7.01;100.00
69667;BME280;66534;52.370;4.832;2023-02-04T00:52:48;103355.50;;;6.99;100.00
69667;BME280;66534;52.370;4.832;2023-02-04T00:53:19;103355.50;;;7.01;100.00
69667;BME280;66534;52.370;4.832;2023-02-04T00:53:49;103352.13;;;7.11;100.00
69667;BME280;66534;52.370;4.832;2023-02-04T00:54:19;103353.91;;;7.15;100.00
69667;BME280;66534;52.370;4.832;2023-02-04T00:54:50;103346.25;;;7.35;100.00
69667;BME280;66534;52.370;4.832;2023-02-04T00:55:20;103348.88;;;7.32;100.00
69667;BME280;66534;52.370;4.832;2023-02-04T00:55:50;103348.88;;;7.35;100.00
69667;BME280;66534;52.370;4.832;2023-02-04T00:56:21;103348.09;;;7.45;100.00
69667;BME280;66534;52.370;4.832;2023-02-04T00:56:51;103350.69;;;7.42;100.00
69667;BME280;66534;52.370;4.832;2023-02-04T00:57:22;103347.00;;;7.23;100.00
69667;BME280;66534;52.370;4.832;2023-02-04T00:57:52;103157.13;;;6.03;100.00
69667;BME280;66534;52.370;4.832;2023-02-04T00:58:22;103356.59;;;7.22;100.00
69667;BME280;66534;52.370;4.832;2023-02-04T00:58:53;103346.19;;;7.26;100.00
69667;BME280;66534;52.370;4.832;2023-02-04T00:59:23;103346.19;;;7.27;100.00
69667;BME280;66534;52.370;4.832;2023-02-04T00:59:54;103347.88;;;7.20;100.00
69667;BME280;66534;52.370;4.832;2023-02-04T01:00:24;103344.31;;;7.12;100.00
69667;BME280;66534;52.370;4.832;2023-02-04T01:00:54;103354.75;;;7.14;100.00
69667;BME280;66534;52.370;4.832;2023-02-04T01:01:25;103347.75;;;7.10;100.00
69667;BME280;66534;52.370;4.832;2023-02-04T01:01:55;103340.91;;;7.19;100.00
69667;BME280;66534;52.370;4.832;2023-02-04T01:02:26;103348.78;;;7.26;100.00
69667;BME280;66534;52.370;4.832;2023-02-04T01:02:56;103349.63;;;7.20;100.00
69667;BME280;66534;52.370;4.832;2023-02-04T01:03:26;103349.53;;;7.11;100.00
69667;BME280;66534;52.370;4.832;2023-02-04T01:03:57;103345.09;;;7.04;100.00
69667;BME280;66534;52.370;4.832;2023-02-04T01:04:27;103342.44;;;7.01;100.00
69667;BME280;66534;52.370;4.832;2023-02-04T01:04:58;103348.63;;;7.10;100.00
69667;BME280;66534;52.370;4.832;2023-02-04T01:05:28;103349.56;;;7.17;100.00
69667;BME280;66534;52.370;4.832;2023-02-04T01:05:59;103350.31;;;7.05;100.00
69667;BME280;66534;52.370;4.832;2023-02-04T01:06:29;103350.34;;;7.07;100.00
69667;BME280;66534;52.370;4.832;2023-02-04T01:07:00;103349.63;;;7.21;100.00
69667;BME280;66534;52.370;4.832;2023-02-04T01:07:30;103354.84;;;7.21;100.00
69667;BME280;66534;52.370;4.832;2023-02-04T01:08:01;103349.81;;;7.41;100.00
69667;BME280;66534;52.370;4.832;2023-02-04T01:08:31;103349.72;;;7.35;100.00
69667;BME280;66534;52.370;4.832;2023-02-04T01:09:01;103348.78;;;7.26;100.00
69667;BME280;66534;52.370;4.832;2023-02-04T01:09:32;103355.78;;;7.28;100.00
69667;BME280;66534;52.370;4.832;2023-02-04T01:10:03;103353.41;;;7.54;100.00
69667;BME280;66534;52.370;4.832;2023-02-04T01:10:33;103354.03;;;7.29;100.00
69667;BME280;66534;52.370;4.832;2023-02-04T01:11:04;103351.41;;;7.27;100.00
69667;BME280;66534;52.370;4.832;2023-02-04T01:11:34;103353.78;;;7.03;100.00
69667;BME280;66534;52.370;4.832;2023-02-04T01:12:05;103360.81;;;7.10;100.00
69667;BME280;66534;52.370;4.832;2023-02-04T01:12:36;103356.72;;;7.36;100.00
69667;BME280;66534;52.370;4.832;2023-02-04T01:13:07;103362.88;;;7.40;100.00
69667;BME280;66534;52.370;4.832;2023-02-04T01:13:38;103361.09;;;7.39;100.00
69667;BME280;66534;52.370;4.832;2023-02-04T01:14:09;103361.91;;;7.33;100.00
69667;BME280;66534;52.370;4.832;2023-02-04T01:14:39;103355.53;;;7.05;100.00
69667;BME280;66534;52.370;4.832;2023-02-04T01:15:10;103358.19;;;7.08;100.00
69667;BME280;66534;52.370;4.832;2023-02-04T01:15:40;103358.97;;;7.01;100.00
69667;BME280;66534;52.370;4.832;2023-02-04T01:16:11;103355.59;;;7.08;100.00
69667;BME280;66534;52.370;4.832;2023-02-04T01:16:42;103356.31;;;6.95;100.00
69667;BME280;66534;52.370;4.832;2023-02-04T01:17:12;103363.22;;;6.90;100.00
69667;BME280;66534;52.370;4.832;2023-02-04T01:17:43;103358.97;;;7.01;100.00
69667;BME280;66534;52.370;4.832;2023-02-04T01:18:13;103366.91;;;7.09;100.00
69667;BME280;66534;52.370;4.832;2023-02-04T01:18:44;103363.38;;;7.04;100.00
69667;BME280;66534;52.370;4.832;2023-02-04T01:19:14;103369.59;;;7.18;100.00
69667;BME280;66534;52.370;4.832;2023-02-04T01:19:44;103366.91;;;7.09;100.00
69667;BME280;66534;52.370;4.832;2023-02-04T01:20:15;103367.84;;;7.17;100.00
69667;BME280;66534;52.370;4.832;2023-02-04T01:20:45;103371.22;;;7.07;100.00
69667;BME280;66534;52.370;4.832;2023-02-04T01:21:16;103377.47;;;7.19;100.00
69667;BME280;66534;52.370;4.832;2023-02-04T01:21:46;103368.50;;;6.96;100.00
69667;BME280;66534;52.370;4.832;2023-02-04T01:22:17;103375.53;;;7.03;100.00
69667;BME280;66534;52.370;4.832;2023-02-04T01:22:47;103376.50;;;7.14;100.00
69667;BME280;66534;52.370;4.832;2023-02-04T01:23:18;103376.53;;;7.16;100.00
69667;BME280;66534;52.370;4.832;2023-02-04T01:23:48;103378.34;;;7.20;100.00
69667;BME280;66534;52.370;4.832;2023-02-04T01:24:19;103375.56;;;7.06;100.00
69667;BME280;66534;52.370;4.832;2023-02-04T01:24:49;103378.09;;;6.98;100.00
69667;BME280;66534;52.370;4.832;2023-02-04T01:25:20;103375.41;;;6.91;100.00
69667;BME280;66534;52.370;4.832;2023-02-04T01:25:50;103381.53;;;6.94;100.00
69667;BME280;66534;52.370;4.832;2023-02-04T01:26:20;103378.25;;;7.11;100.00
69667;BME280;66534;52.370;4.832;2023-02-04T01:26:51;103376.59;;;7.20;100.00
69667;BME280;66534;52.370;4.832;2023-02-04T01:27:21;103381.97;;;7.39;100.00
69667;BME280;66534;52.370;4.832;2023-02-04T01:27:52;103378.47;;;7.35;100.00
69667;BME280;66534;52.370;4.832;2023-02-04T01:28:22;103380.81;;;7.09;100.00
69667;BME280;66534;52.370;4.832;2023-02-04T01:28:53;103385.84;;;6.91;100.00
69667;BME280;66534;52.370;4.832;2023-02-04T01:29:23;103380.66;;;6.94;100.00
69667;BME280;66534;52.370;4.832;2023-02-04T01:29:54;103372.94;;;7.05;100.00
69667;BME280;66534;52.370;4.832;2023-02-04T01:30:24;103384.38;;;7.19;100.00
69667;BME280;66534;52.370;4.832;2023-02-04T01:30:55;103380.19;;;7.33;100.00
69667;BME280;66534;52.370;4.832;2023-02-04T01:31:25;103380.19;;;7.32;100.00
69667;BME280;66534;52.370;4.832;2023-02-04T01:31:56;103382.63;;;7.18;100.00
69667;BME280;66534;52.370;4.832;2023-02-04T01:32:26;103385.16;;;7.10;100.00
69667;BME280;66534;52.370;4.832;2023-02-04T01:32:56;103383.47;;;7.14;100.00
69667;BME280;66534;52.370;4.832;2023-02-04T01:33:27;103386.25;;;7.28;100.00
69667;BME280;66534;52.370;4.832;2023-02-04T01:33:57;103387.91;;;7.19;100.00
69667;BME280;66534;52.370;4.832;2023-02-04T01:34:28;103387.81;;;7.12;100.00
69667;BME280;66534;52.370;4.832;2023-02-04T01:35:00;103391.25;;;7.08;100.00
69667;BME280;66534;52.370;4.832;2023-02-04T01:35:30;103395.72;;;7.21;100.00
69667;BME280;66534;52.370;4.832;2023-02-04T01:36:01;103399.38;;;7.37;100.00
69667;BME280;66534;52.370;4.832;2023-02-04T01:36:31;103393.41;;;7.50;100.00
69667;BME280;66534;52.370;4.832;2023-02-04T01:37:02;103391.38;;;7.23;100.00
69667;BME280;66534;52.370;4.832;2023-02-04T01:37:32;103394.94;;;7.30;100.00
69667;BME280;66534;52.370;4.832;2023-02-04T01:38:03;103394.00;;;7.23;100.00
69667;BME280;66534;52.370;4.832;2023-02-04T01:38:33;103400.09;;;7.22;100.00
69667;BME280;66534;52.370;4.832;2023-02-04T01:39:03;103394.19;;;7.41;100.00
69667;BME280;66534;52.370;4.832;2023-02-04T01:39:34;103402.03;;;7.43;100.00
69667;BME280;66534;52.370;4.832;2023-02-04T01:40:05;103392.47;;;7.40;100.00
69667;BME280;66534;52.370;4.832;2023-02-04T01:40:37;103395.34;;;7.69;100.00
69667;BME280;66534;52.370;4.832;2023-02-04T01:41:07;103399.47;;;7.47;100.00
69667;BME280;66534;52.370;4.832;2023-02-04T01:41:38;103398.50;;;7.38;100.00
69667;BME280;66534;52.370;4.832;2023-02-04T01:42:09;103403.81;;;7.47;100.00
69667;BME280;66534;52.370;4.832;2023-02-04T01:42:40;103394.44;;;7.69;100.00
69667;BME280;66534;52.370;4.832;2023-02-04T01:43:11;103398.78;;;7.68;100.00
69667;BME280;66534;52.370;4.832;2023-02-04T01:43:41;103400.38;;;7.51;100.00
69667;BME280;66534;52.370;4.832;2023-02-04T01:44:12;103402.91;;;7.43;100.00
69667;BME280;66534;52.370;4.832;2023-02-04T01:44:42;103397.69;;;7.43;100.00
69667;BME280;66534;52.370;4.832;2023-02-04T01:45:13;103407.44;;;7.61;100.00
69667;BME280;66534;52.370;4.832;2023-02-04T01:45:44;103407.59;;;7.81;100.00
69667;BME280;66534;52.370;4.832;2023-02-04T01:46:15;103406.53;;;7.59;100.00
69667;BME280;66534;52.370;4.832;2023-02-04T01:46:46;103409.03;;;7.45;100.00
69667;BME280;66534;52.370;4.832;2023-02-04T01:47:16;103411.66;;;7.47;100.00
69667;BME280;66534;52.370;4.832;2023-02-04T01:47:47;103415.13;;;7.46;100.00
69667;BME280;66534;52.370;4.832;2023-02-04T01:48:18;103411.06;;;7.79;100.00
69667;BME280;66534;52.370;4.832;2023-02-04T01:48:51;103406.91;;;8.05;100.00
69667;BME280;66534;52.370;4.832;2023-02-04T01:49:22;103409.63;;;8.17;100.00
69667;BME280;66534;52.370;4.832;2023-02-04T01:49:53;103408.06;;;8.44;100.00
69667;BME280;66534;52.370;4.832;2023-02-04T01:50:24;103407.16;;;8.37;100.00
69667;BME280;66534;52.370;4.832;2023-02-04T01:51:01;103415.72;;;8.18;100.00
69667;BME280;66534;52.370;4.832;2023-02-04T01:51:34;103405.16;;;8.06;100.00
69667;BME280;66534;52.370;4.832;2023-02-04T01:52:09;103413.91;;;8.08;100.00
69667;BME280;66534;52.370;4.832;2023-02-04T01:52:40;103410.44;;;8.07;100.00
69667;BME280;66534;52.370;4.832;2023-02-04T01:53:13;103413.84;;;8.02;100.00
69667;BME280;66534;52.370;4.832;2023-02-04T01:53:47;103413.91;;;8.11;100.00
69667;BME280;66534;52.370;4.832;2023-02-04T01:54:17;103411.53;;;8.37;100.00
69667;BME280;66534;52.370;4.832;2023-02-04T01:54:50;103406.38;;;8.57;100.00
69667;BME280;66534;52.370;4.832;2023-02-04T01:55:23;103412.59;;;8.74;100.00
69667;BME280;66534;52.370;4.832;2023-02-04T01:55:56;103411.72;;;8.75;100.00
69667;BME280;66534;52.370;4.832;2023-02-04T01:56:27;103419.59;;;8.78;100.00
69667;BME280;66534;52.370;4.832;2023-02-04T01:56:59;103414.31;;;8.77;100.00
69667;BME280;66534;52.370;4.832;2023-02-04T01:57:36;103416.84;;;8.54;100.00
69667;BME280;66534;52.370;4.832;2023-02-04T01:58:08;103415.81;;;8.33;100.00
69667;BME280;66534;52.370;4.832;2023-02-04T01:58:41;103414.91;;;8.27;100.00
69667;BME280;66534;52.370;4.832;2023-02-04T01:59:12;103416.53;;;8.09;100.00
69667;BME280;66534;52.370;4.832;2023-02-04T01:59:45;103412.84;;;7.84;100.00
69667;BME280;66534;52.370;4.832;2023-02-04T02:00:18;103405.00;;;7.83;100.00
69667;BME280;66534;52.370;4.832;2023-02-04T02:00:53;103412.09;;;7.94;100.00
69667;BME280;66534;52.370;4.832;2023-02-04T02:03:15;103412.81;;;7.80;100.00
69667;BME280;66534;52.370;4.832;2023-02-04T02:03:46;103415.47;;;7.83;100.00
69667;BME280;66534;52.370;4.832;2023-02-04T02:04:17;103416.41;;;7.91;100.00
69667;BME280;66534;52.370;4.832;2023-02-04T02:04:50;103411.22;;;7.95;100.00
69667;BME280;66534;52.370;4.832;2023-02-04T02:05:22;103416.53;;;8.11;100.00
69667;BME280;66534;52.370;4.832;2023-02-04T02:05:56;103418.16;;;7.93;100.00
69667;BME280;66534;52.370;4.832;2023-02-04T02:06:27;103416.53;;;8.09;100.00
69667;BME280;66534;52.370;4.832;2023-02-04T02:06:58;103416.63;;;8.26;100.00
69667;BME280;66534;52.370;4.832;2023-02-04T02:07:32;103413.34;;;8.50;100.00
69667;BME280;66534;52.370;4.832;2023-02-04T02:08:04;103415.84;;;8.36;100.00
69667;BME280;66534;52.370;4.832;2023-02-04T02:08:35;103415.75;;;8.27;100.00
69667;BME280;66534;52.370;4.832;2023-02-04T02:09:06;103421.06;;;8.35;100.00
69667;BME280;66534;52.370;4.832;2023-02-04T02:09:37;103427.28;;;8.52;100.00
69667;BME280;66534;52.370;4.832;2023-02-04T02:10:08;103421.31;;;8.79;100.00
69667;BME280;66534;52.370;4.832;2023-02-04T02:10:42;103424.00;;;8.96;100.00
69667;BME280;66534;52.370;4.832;2023-02-04T02:11:15;103419.66;;;9.00;100.00
69667;BME280;66534;52.370;4.832;2023-02-04T02:11:45;103417.97;;;9.17;100.00
69667;BME280;66534;52.370;4.832;2023-02-04T02:12:16;103411.84;;;9.12;100.00
69667;BME280;66534;52.370;4.832;2023-02-04T02:12:47;103417.09;;;9.16;100.00
69667;BME280;66534;52.370;4.832;2023-02-04T02:13:17;103423.22;;;9.21;100.00
69667;BME280;66534;52.370;4.832;2023-02-04T02:13:48;103420.63;;;9.32;100.00
69667;BME280;66534;52.370;4.832;2023-02-04T02:14:19;103415.34;;;9.23;100.00
69667;BME280;66534;52.370;4.832;2023-02-04T02:14:50;103417.94;;;9.15;100.00
69667;BME280;66534;52.370;4.832;2023-02-04T02:15:20;103419.72;;;9.30;100.00
69667;BME280;66534;52.370;4.832;2023-02-04T02:15:51;103416.25;;;9.36;100.00
69667;BME280;66534;52.370;4.832;2023-02-04T02:16:22;103419.72;;;9.36;100.00
69667;BME280;66534;52.370;4.832;2023-02-04T02:16:53;103411.88;;;9.26;100.00
69667;BME280;66534;52.370;4.832;2023-02-04T02:17:23;103415.34;;;9.28;100.00
69667;BME280;66534;52.370;4.832;2023-02-04T02:17:54;103412.75;;;9.26;100.00
69667;BME280;66534;52.370;4.832;2023-02-04T02:18:25;103413.63;;;9.30;100.00
69667;BME280;66534;52.370;4.832;2023-02-04T02:18:56;103411.00;;;9.39;100.00
69667;BME280;66534;52.370;4.832;2023-02-04T02:19:29;103421.50;;;9.34;100.00
69667;BME280;66534;52.370;4.832;2023-02-04T02:20:05;103416.22;;;9.17;100.00
69667;BME280;66534;52.370;4.832;2023-02-04T02:20:37;103414.47;;;9.16;100.00
69667;BME280;66534;52.370;4.832;2023-02-04T02:21:08;103421.50;;;9.28;100.00
69667;BME280;66534;52.370;4.832;2023-02-04T02:21:48;103416.25;;;9.30;100.00
69667;BME280;66534;52.370;4.832;2023-02-04T02:23:50;103422.13;;;8.69;100.00
69667;BME280;66534;52.370;4.832;2023-02-04T02:24:26;103420.41;;;8.68;100.00
69667;BME280;66534;52.370;4.832;2023-02-04T02:24:58;103420.53;;;8.95;100.00
69667;BME280;66534;52.370;4.832;2023-02-04T02:25:29;103417.94;;;9.03;100.00
69667;BME280;66534;52.370;4.832;2023-02-04T02:25:59;103423.09;;;8.89;100.00
69667;BME280;66534;52.370;4.832;2023-02-04T02:26:30;103428.22;;;8.63;100.00
69667;BME280;66534;52.370;4.832;2023-02-04T02:27:01;103415.19;;;8.69;100.00
69667;BME280;66534;52.370;4.832;2023-02-04T02:27:37;103428.28;;;8.71;100.00
69667;BME280;66534;52.370;4.832;2023-02-04T02:28:15;103423.84;;;8.59;100.00
69667;BME280;66534;52.370;4.832;2023-02-04T02:28:47;103427.44;;;8.81;100.00
69667;BME280;66534;52.370;4.832;2023-02-04T02:29:19;103426.53;;;8.75;100.00
69667;BME280;66534;52.370;4.832;2023-02-04T02:29:49;103425.66;;;8.69;100.00
69667;BME280;66534;52.370;4.832;2023-02-04T02:30:20;103423.88;;;8.64;100.00
69667;BME280;66534;52.370;4.832;2023-02-04T02:30:51;103424.75;;;8.69;100.00
69667;BME280;66534;52.370;4.832;2023-02-04T02:31:22;103421.25;;;8.68;100.00
69667;BME280;66534;52.370;4.832;2023-02-04T02:31:53;103422.94;;;8.51;100.00
69667;BME280;66534;52.370;4.832;2023-02-04T02:32:28;103427.28;;;8.51;100.00
69667;BME280;66534;52.370;4.832;2023-02-04T02:32:59;103426.34;;;8.39;100.00
69667;BME280;66534;52.370;4.832;2023-02-04T02:33:30;103419.22;;;8.15;100.00
69667;BME280;66534;52.370;4.832;2023-02-04T02:34:00;103421.00;;;8.26;100.00
69667;BME280;66534;52.370;4.832;2023-02-04T02:34:31;103420.84;;;8.06;100.00
69667;BME280;66534;52.370;4.832;2023-02-04T02:35:03;103420.00;;;8.04;100.00
69667;BME280;66534;52.370;4.832;2023-02-04T02:35:35;103421.59;;;7.88;100.00
69667;BME280;66534;52.370;4.832;2023-02-04T02:36:05;103419.75;;;7.74;100.00
69667;BME280;66534;52.370;4.832;2023-02-04T02:36:36;103419.72;;;7.71;100.00
69667;BME280;66534;52.370;4.832;2023-02-04T02:37:07;103418.94;;;7.83;100.00
69667;BME280;66534;52.370;4.832;2023-02-04T02:37:40;103418.91;;;7.80;100.00
69667;BME280;66534;52.370;4.832;2023-02-04T02:38:11;103428.34;;;7.64;100.00
69667;BME280;66534;52.370;4.832;2023-02-04T02:38:42;103420.59;;;7.72;100.00
69667;BME280;66534;52.370;4.832;2023-02-04T02:39:13;103426.63;;;7.63;100.00
69667;BME280;66534;52.370;4.832;2023-02-04T02:39:43;103424.03;;;7.68;100.00
69667;BME280;66534;52.370;4.832;2023-02-04T02:40:14;103428.34;;;7.61;100.00
69667;BME280;66534;52.370;4.832;2023-02-04T02:40:45;103427.56;;;7.70;100.00
69667;BME280;66534;52.370;4.832;2023-02-04T02:41:17;103423.13;;;7.61;100.00
69667;BME280;66534;52.370;4.832;2023-02-04T02:41:47;103419.00;;;7.86;100.00
69667;BME280;66534;52.370;4.832;2023-02-04T02:42:18;103426.09;;;8.03;100.00
69667;BME280;66534;52.370;4.832;2023-02-04T02:42:50;103431.13;;;7.80;100.00
69667;BME280;66534;52.370;4.832;2023-02-04T02:43:23;103431.25;;;7.95;100.00
69667;BME280;66534;52.370;4.832;2023-02-04T02:43:55;103426.13;;;8.10;100.00
69667;BME280;66534;52.370;4.832;2023-02-04T02:44:26;103421.81;;;8.18;100.00
69667;BME280;66534;52.370;4.832;2023-02-04T02:44:58;103423.50;;;8.09;100.00
69667;BME280;66534;52.370;4.832;2023-02-04T02:45:29;103422.34;;;7.70;100.00